Time;durP1;ratioP1;P1;durP2;ratioP2;P2;SDS_P1;SDS_P2;PMS_P1;PMS_P2;Temp;Humidity;BMP_temperature;BMP_pressure;BME280_temperature;BME280_humidity;BME280_pressure;Samples;Min_cycle;Max_cycle;Signal;HPM_P1;HPM_P2
2023/09/21 00:00:59;;;;;;;2.03;1.25;;;20.20;99.90;;;;;;5100499;27;20035;-34
2023/09/21 00:03:30;;;;;;;1.85;1.40;;;20.10;99.90;;;;;;5167794;27;20073;-35
2023/09/21 00:05:57;;;;;;;2.17;1.30;;;20.10;99.90;;;;;;5157199;27;20065;-34
2023/09/21 00:08:25;;;;;;;1.73;1.20;;;20.00;99.90;;;;;;5165635;27;20026;-36
2023/09/21 00:10:51;;;;;;;1.60;1.50;;;20.00;99.90;;;;;;5127730;27;20022;-34
2023/09/21 00:13:18;;;;;;;1.77;1.52;;;19.90;99.90;;;;;;5079181;27;20152;-35
2023/09/21 00:15:44;;;;;;;2.33;1.30;;;19.80;99.90;;;;;;5096289;27;20109;-34
2023/09/21 00:18:10;;;;;;;1.30;1.20;;;19.80;99.90;;;;;;5092503;27;20020;-35
2023/09/21 00:23:07;;;;;;;2.03;1.52;;;19.80;99.90;;;;;;5105105;27;20048;-36
2023/09/21 00:25:34;;;;;;;2.40;1.42;;;19.70;99.90;;;;;;5076529;27;20023;-35
2023/09/21 00:28:04;;;;;;;2.33;1.38;;;19.70;99.90;;;;;;5118049;27;20099;-34
2023/09/21 00:30:30;;;;;;;1.30;1.15;;;19.60;99.90;;;;;;5071274;27;20029;-35
2023/09/21 00:32:55;;;;;;;2.58;1.50;;;19.60;99.90;;;;;;5124165;27;20395;-36
2023/09/21 00:35:27;;;;;;;2.25;1.33;;;19.60;99.90;;;;;;5071363;27;20032;-34
2023/09/21 00:37:52;;;;;;;1.95;1.60;;;19.50;99.90;;;;;;5123599;27;20052;-35
2023/09/21 00:40:18;;;;;;;1.80;1.42;;;19.40;99.90;;;;;;5064328;27;20577;-34
2023/09/21 00:42:44;;;;;;;1.88;1.33;;;19.40;99.90;;;;;;5130349;27;20041;-34
2023/09/21 00:45:10;;;;;;;1.58;1.30;;;19.40;99.90;;;;;;5063607;28;20084;-35
2023/09/21 00:47:42;;;;;;;1.60;1.38;;;19.40;99.90;;;;;;5130870;27;20574;-35
2023/09/21 00:50:11;;;;;;;2.65;1.67;;;19.40;99.90;;;;;;5063258;27;20503;-33
2023/09/21 00:52:45;;;;;;;1.92;1.38;;;19.40;99.90;;;;;;5129678;27;20661;-35
2023/09/21 00:55:16;;;;;;;1.40;1.30;;;19.40;99.90;;;;;;5044432;28;20380;-34
2023/09/21 00:57:45;;;;;;;1.83;1.45;;;19.40;99.90;;;;;;5119320;27;20373;-34
2023/09/21 01:00:13;;;;;;;1.67;1.48;;;19.40;99.90;;;;;;5067630;27;20024;-34
2023/09/21 01:02:43;;;;;;;1.48;1.33;;;19.40;99.90;;;;;;5115249;27;20026;-34
2023/09/21 01:05:17;;;;;;;2.40;1.45;;;19.40;99.90;;;;;;5086680;27;20051;-35
2023/09/21 01:07:45;;;;;;;2.42;1.30;;;19.40;99.90;;;;;;5123719;27;20112;-34
2023/09/21 01:10:14;;;;;;;1.80;1.25;;;19.40;99.90;;;;;;5150278;27;20532;-34
2023/09/21 01:12:44;;;;;;;1.95;1.52;;;19.30;99.90;;;;;;5133472;27;20035;-42
2023/09/21 01:15:13;;;;;;;2.10;1.40;;;19.40;99.90;;;;;;5142142;27;20030;-34
2023/09/21 01:17:41;;;;;;;3.05;1.42;;;19.30;99.90;;;;;;5141976;27;20012;-35
2023/09/21 01:20:27;;;;;;;1.50;1.23;;;19.30;99.90;;;;;;5132028;27;20054;-35
2023/09/21 01:23:11;;;;;;;1.45;1.30;;;19.30;99.90;;;;;;5138886;27;20029;-36
2023/09/21 01:25:42;;;;;;;2.05;1.30;;;19.40;99.90;;;;;;5146994;27;20063;-35
2023/09/21 01:28:09;;;;;;;1.38;1.27;;;19.30;99.90;;;;;;5135283;27;20024;-35
2023/09/21 01:30:38;;;;;;;1.77;1.30;;;19.30;99.90;;;;;;5137961;27;20049;-34
2023/09/21 01:33:08;;;;;;;1.67;1.50;;;19.40;99.90;;;;;;5145728;27;20422;-35
2023/09/21 01:35:34;;;;;;;1.90;1.55;;;19.40;99.90;;;;;;5103399;27;20823;-35
2023/09/21 01:38:00;;;;;;;1.50;1.23;;;19.30;99.90;;;;;;5075742;27;20029;-35
2023/09/21 01:40:25;;;;;;;1.33;1.20;;;19.40;99.90;;;;;;5116244;27;20025;-34
2023/09/21 01:42:51;;;;;;;1.70;1.33;;;19.40;99.90;;;;;;5070892;27;20022;-35
2023/09/21 01:45:17;;;;;;;1.40;1.20;;;19.30;99.90;;;;;;5122320;27;20031;-35
2023/09/21 01:47:43;;;;;;;1.50;1.17;;;19.30;99.90;;;;;;5067684;27;20024;-34
2023/09/21 01:50:15;;;;;;;1.77;1.20;;;19.30;99.90;;;;;;5123852;27;20016;-36
2023/09/21 01:52:41;;;;;;;2.45;1.30;;;19.30;99.90;;;;;;5064517;27;20115;-39
2023/09/21 01:55:10;;;;;;;1.80;1.30;;;19.30;99.90;;;;;;5129387;27;20502;-36
2023/09/21 01:57:39;;;;;;;1.55;1.30;;;19.30;99.90;;;;;;5063431;28;20128;-35
2023/09/21 02:00:26;;;;;;;1.52;1.40;;;19.30;99.90;;;;;;5129397;27;20404;-35
2023/09/21 02:02:53;;;;;;;1.77;1.52;;;19.30;99.90;;;;;;5062947;27;20068;-34
2023/09/21 02:05:19;;;;;;;2.08;1.50;;;19.30;99.90;;;;;;5124654;27;20014;-35
2023/09/21 02:07:46;;;;;;;1.55;1.20;;;19.30;99.90;;;;;;5062521;27;20060;-35
2023/09/21 02:10:21;;;;;;;2.95;1.50;;;19.30;99.90;;;;;;5125662;27;20062;-34
2023/09/21 02:12:59;;;;;;;1.20;1.10;;;19.40;99.90;;;;;;5043834;28;20135;-34
2023/09/21 02:15:26;;;;;;;1.48;1.38;;;19.40;99.90;;;;;;5125037;27;20106;-34
2023/09/21 02:17:55;;;;;;;1.55;1.30;;;19.40;99.90;;;;;;5043306;28;20104;-34
2023/09/21 02:20:22;;;;;;;2.20;1.30;;;19.50;99.90;;;;;;5077099;27;20744;-35
2023/09/21 02:22:52;;;;;;;1.30;1.20;;;19.60;99.90;;;;;;5157280;27;20072;-35
2023/09/21 02:25:22;;;;;;;1.77;1.40;;;19.60;99.90;;;;;;5123087;27;20024;-35
2023/09/21 02:27:48;;;;;;;1.98;1.40;;;19.70;99.90;;;;;;5151019;27;20018;-34
2023/09/21 02:30:20;;;;;;;2.42;1.45;;;19.70;99.90;;;;;;5133154;27;20020;-37
2023/09/21 02:32:50;;;;;;;2.17;1.50;;;19.80;99.90;;;;;;5142000;27;20040;-34
2023/09/21 02:35:27;;;;;;;1.55;1.38;;;19.80;99.90;;;;;;5137821;27;20036;-34
2023/09/21 02:37:55;;;;;;;2.58;1.48;;;19.70;99.90;;;;;;5138974;27;20033;-34
2023/09/21 02:40:25;;;;;;;1.33;1.20;;;19.70;99.90;;;;;;5143359;27;20028;-34
2023/09/21 02:42:54;;;;;;;1.55;1.35;;;19.80;99.90;;;;;;5129058;27;20038;-35
2023/09/21 02:45:24;;;;;;;1.70;1.48;;;19.80;99.90;;;;;;5152368;27;20033;-43
2023/09/21 02:48:00;;;;;;;1.67;1.30;;;19.80;99.90;;;;;;5121654;27;20025;-35
2023/09/21 02:50:27;;;;;;;2.67;1.42;;;19.80;99.90;;;;;;5154165;27;20417;-35
2023/09/21 02:53:08;;;;;;;1.48;1.35;;;19.90;99.90;;;;;;5116381;27;20026;-35
2023/09/21 02:55:35;;;;;;;1.60;1.35;;;19.90;99.90;;;;;;5157625;27;20018;-34
2023/09/21 02:58:19;;;;;;;1.42;1.33;;;20.00;99.90;;;;;;5114182;27;20022;-34
2023/09/21 03:00:46;;;;;;;1.50;1.40;;;20.10;99.90;;;;;;5146469;27;20017;-35
2023/09/21 03:03:16;;;;;;;1.20;1.10;;;20.10;99.90;;;;;;5115072;27;20025;-36
2023/09/21 03:05:46;;;;;;;1.65;1.27;;;20.10;99.90;;;;;;5081784;27;20027;-35
2023/09/21 03:08:14;;;;;;;3.63;1.40;;;20.10;99.90;;;;;;5096489;27;20094;-36
2023/09/21 03:10:44;;;;;;;1.20;1.00;;;20.10;99.90;;;;;;5159983;27;20026;-34
2023/09/21 03:13:10;;;;;;;1.58;1.02;;;20.10;99.90;;;;;;5107563;27;20074;-34
2023/09/21 03:15:40;;;;;;;1.55;1.35;;;20.10;99.90;;;;;;5165416;27;20037;-35
2023/09/21 03:18:05;;;;;;;1.30;1.17;;;20.10;99.90;;;;;;5106026;27;20094;-37
2023/09/21 03:20:37;;;;;;;1.63;1.27;;;20.10;99.90;;;;;;5132608;27;20764;-34
2023/09/21 03:23:09;;;;;;;1.58;1.27;;;20.10;99.90;;;;;;5069513;27;20068;-34
2023/09/21 03:25:45;;;;;;;2.83;1.50;;;20.20;99.90;;;;;;5062415;28;20061;-34
2023/09/21 03:28:15;;;;;;;1.70;1.58;;;20.20;99.90;;;;;;5128279;27;20070;-35
2023/09/21 03:30:49;;;;;;;2.92;1.23;;;20.20;99.90;;;;;;5062915;28;20041;-34
2023/09/21 03:33:16;;;;;;;1.38;1.20;;;20.30;99.90;;;;;;5092632;27;20029;-36
2023/09/21 03:35:42;;;;;;;1.73;1.35;;;20.30;99.90;;;;;;5167577;27;20026;-35
2023/09/21 03:38:12;;;;;;;1.60;1.50;;;20.30;99.90;;;;;;5103895;27;20025;-35
2023/09/21 03:40:38;;;;;;;1.60;1.30;;;20.30;99.90;;;;;;5042837;28;20060;-35
2023/09/21 03:43:10;;;;;;;1.85;1.20;;;20.30;99.90;;;;;;5108167;27;20484;-35
2023/09/21 03:45:36;;;;;;;1.90;1.50;;;20.30;99.90;;;;;;5071915;27;20134;-34
2023/09/21 03:48:08;;;;;;;2.38;1.40;;;20.30;99.90;;;;;;5104532;27;20363;-36
2023/09/21 03:50:38;;;;;;;1.30;1.20;;;20.20;99.90;;;;;;5080398;27;20029;-35
2023/09/21 03:53:05;;;;;;;3.38;1.30;;;20.30;99.90;;;;;;5068607;27;20028;-37
2023/09/21 03:55:34;;;;;;;1.55;1.42;;;20.30;99.90;;;;;;5142483;27;20022;-34
2023/09/21 03:58:00;;;;;;;1.70;1.38;;;20.30;99.90;;;;;;5144914;27;20072;-35
2023/09/21 04:00:29;;;;;;;1.63;1.20;;;20.30;99.90;;;;;;5132195;27;20029;-35
2023/09/21 04:02:59;;;;;;;1.30;1.20;;;20.40;99.90;;;;;;5156289;27;20031;-35
2023/09/21 04:05:30;;;;;;;2.00;1.38;;;20.30;99.90;;;;;;5113653;27;20026;-34
2023/09/21 04:07:57;;;;;;;1.48;1.20;;;20.30;99.90;;;;;;5073556;27;20403;-34
2023/09/21 04:10:22;;;;;;;1.92;1.40;;;20.40;99.90;;;;;;5122324;27;20017;-34
2023/09/21 04:12:50;;;;;;;1.45;1.20;;;20.40;99.90;;;;;;5072603;27;20022;-36
2023/09/21 04:15:17;;;;;;;1.52;1.38;;;20.40;99.90;;;;;;5123409;27;20084;-35
2023/09/21 04:17:42;;;;;;;2.15;1.40;;;20.40;99.90;;;;;;5068556;27;20088;-36
2023/09/21 04:20:14;;;;;;;1.52;1.25;;;20.40;99.90;;;;;;5127242;27;20382;-35
2023/09/21 04:22:41;;;;;;;1.33;1.23;;;20.50;99.90;;;;;;5064765;28;20368;-35
2023/09/21 04:25:13;;;;;;;1.83;1.55;;;20.50;99.90;;;;;;5131640;27;20029;-37
2023/09/21 04:27:43;;;;;;;;;;;20.50;99.90;;;;;;5171589;27;20034;-34
2023/09/21 04:30:44;;;;;;;1.58;1.48;;;20.50;99.90;;;;;;5102466;27;20644;-36
2023/09/21 04:33:04;;;;;;;1.35;1.25;;;20.50;99.90;;;;;;5168157;27;20149;-36
2023/09/21 04:35:30;;;;;;;2.15;1.50;;;20.50;99.90;;;;;;5103182;27;20114;-34
2023/09/21 04:37:56;;;;;;;1.80;1.30;;;20.50;99.90;;;;;;5171113;27;20553;-34
2023/09/21 04:40:23;;;;;;;1.73;1.40;;;20.50;99.90;;;;;;5103563;27;20515;-35
2023/09/21 04:42:48;;;;;;;1.92;1.20;;;20.50;99.90;;;;;;5169586;27;20552;-37
2023/09/21 04:45:16;;;;;;;2.03;1.65;;;20.50;99.90;;;;;;5112740;27;20031;-35
2023/09/21 04:47:49;;;;;;;1.10;1.00;;;20.50;99.90;;;;;;5162951;27;20026;-36
2023/09/21 04:50:16;;;;;;;;;;;20.50;99.90;;;;;;5120147;27;20747;-36
2023/09/21 04:52:43;;;;;;;1.52;1.02;;;20.50;99.90;;;;;;5156190;27;19911;-35
2023/09/21 04:55:10;;;;;;;1.40;1.30;;;20.50;99.90;;;;;;5132508;27;20591;-35
2023/09/21 04:57:36;;;;;;;2.97;1.60;;;20.50;99.90;;;;;;5142531;27;20022;-34
2023/09/21 05:00:08;;;;;;;1.50;1.40;;;20.50;99.90;;;;;;5144762;27;20052;-36
2023/09/21 05:02:34;;;;;;;1.77;1.42;;;20.50;99.90;;;;;;5133664;27;20057;-36
2023/09/21 05:05:00;;;;;;;1.65;1.50;;;20.50;99.90;;;;;;5152716;27;20078;-36
2023/09/21 05:07:27;;;;;;;1.48;1.30;;;20.50;99.90;;;;;;5159006;27;20049;-34
2023/09/21 05:09:52;;;;;;;1.40;1.30;;;20.50;99.90;;;;;;5162964;27;20079;-35
2023/09/21 05:12:21;;;;;;;1.20;1.10;;;20.40;99.90;;;;;;5108866;27;20034;-34
2023/09/21 05:14:47;;;;;;;2.47;1.13;;;20.40;99.90;;;;;;5163228;27;20756;-35
2023/09/21 05:17:14;;;;;;;3.05;1.40;;;20.40;99.90;;;;;;5110477;27;20036;-34
2023/09/21 05:19:41;;;;;;;2.10;1.63;;;20.40;99.90;;;;;;5168831;27;20102;-41
2023/09/21 05:22:08;;;;;;;2.30;1.30;;;20.30;99.90;;;;;;5103273;27;20043;-34
2023/09/21 05:24:36;;;;;;;1.42;1.33;;;20.20;99.90;;;;;;5063485;28;20028;-34
2023/09/21 05:27:05;;;;;;;1.42;1.25;;;20.20;99.90;;;;;;5129831;27;20638;-33
2023/09/21 05:29:30;;;;;;;2.20;1.60;;;20.10;99.90;;;;;;5064471;28;20017;-35
2023/09/21 05:31:59;;;;;;;1.50;1.40;;;20.10;99.90;;;;;;5123699;27;20049;-34
2023/09/21 05:34:28;;;;;;;2.88;1.90;;;20.20;99.90;;;;;;5061620;27;20021;-35
2023/09/21 05:36:54;;;;;;;1.95;1.67;;;20.10;99.90;;;;;;5115977;27;20038;-35
2023/09/21 05:39:20;;;;;;;2.05;1.75;;;20.10;99.90;;;;;;5074475;27;20025;-34
2023/09/21 05:41:55;;;;;;;2.38;1.65;;;20.00;99.90;;;;;;5103131;27;20457;-34
2023/09/21 05:44:25;;;;;;;1.60;1.50;;;20.00;99.90;;;;;;5081667;27;20029;-34
2023/09/21 05:46:51;;;;;;;2.50;1.63;;;20.00;99.90;;;;;;5099326;27;20019;-35
2023/09/21 05:49:21;;;;;;;2.65;1.52;;;20.00;99.90;;;;;;5091118;27;20032;-35
2023/09/21 05:51:48;;;;;;;1.67;1.52;;;20.10;99.90;;;;;;5089000;27;20812;-34
2023/09/21 05:54:16;;;;;;;2.30;1.70;;;20.10;99.90;;;;;;5100367;27;20083;-35
2023/09/21 05:56:43;;;;;;;2.08;1.50;;;20.00;99.90;;;;;;5077716;27;20028;-36
2023/09/21 05:59:08;;;;;;;1.85;1.45;;;20.00;99.90;;;;;;5112609;27;20108;-34
2023/09/21 06:01:34;;;;;;;3.03;1.60;;;20.00;99.90;;;;;;5068628;27;20630;-35
2023/09/21 06:04:00;;;;;;;1.85;1.55;;;20.00;99.90;;;;;;5121745;27;20032;-34
2023/09/21 06:06:28;;;;;;;1.92;1.40;;;20.00;99.90;;;;;;5108725;27;20034;-34
2023/09/21 06:08:56;;;;;;;1.58;1.40;;;20.00;99.90;;;;;;5121155;27;20028;-34
2023/09/21 06:11:22;;;;;;;1.55;1.40;;;20.00;99.90;;;;;;5062010;27;20027;-34
2023/09/21 06:13:48;;;;;;;1.38;1.20;;;20.00;99.90;;;;;;5101446;27;20068;-34
2023/09/21 06:16:14;;;;;;;1.42;1.30;;;20.00;99.90;;;;;;5167844;27;20063;-35
2023/09/21 06:18:41;;;;;;;1.48;1.30;;;20.00;99.90;;;;;;5101759;27;20024;-35
2023/09/21 06:21:06;;;;;;;1.98;1.27;;;19.90;99.90;;;;;;5166758;27;20064;-35
2023/09/21 06:23:32;;;;;;;1.75;1.23;;;19.90;99.90;;;;;;5110229;27;20064;-35
2023/09/21 06:25:59;;;;;;;1.80;1.30;;;19.90;99.90;;;;;;5159427;27;20066;-35
2023/09/21 06:28:28;;;;;;;1.90;1.45;;;19.90;99.90;;;;;;5123073;27;20028;-35
2023/09/21 06:30:54;;;;;;;2.13;1.40;;;19.90;99.90;;;;;;5149019;27;20063;-36
2023/09/21 06:33:23;;;;;;;1.95;1.60;;;19.90;99.90;;;;;;5134016;27;20028;-34
2023/09/21 06:35:49;;;;;;;1.90;1.50;;;19.90;99.90;;;;;;5137341;27;20030;-42
2023/09/21 06:38:19;;;;;;;1.67;1.50;;;19.80;99.90;;;;;;5144333;27;20023;-34
2023/09/21 06:40:44;;;;;;;1.67;1.30;;;19.80;99.90;;;;;;5128360;27;20375;-35
2023/09/21 06:43:12;;;;;;;2.80;1.50;;;19.70;99.90;;;;;;5155974;27;20477;-34
2023/09/21 06:45:37;;;;;;;2.25;1.70;;;19.70;99.90;;;;;;5116170;27;20034;-35
2023/09/21 06:48:04;;;;;;;1.55;1.45;;;19.60;99.90;;;;;;5161088;27;20576;-34
2023/09/21 06:50:29;;;;;;;2.45;1.70;;;19.60;99.90;;;;;;5108606;27;20018;-34
2023/09/21 06:52:58;;;;;;;2.25;1.60;;;19.60;99.90;;;;;;5163100;27;20041;-35
2023/09/21 06:55:25;;;;;;;2.25;1.70;;;19.60;99.90;;;;;;5117676;27;20421;-35
2023/09/21 06:57:50;;;;;;;1.77;1.30;;;19.60;99.90;;;;;;5063317;27;20063;-35
2023/09/21 07:00:19;;;;;;;1.88;1.45;;;19.60;99.90;;;;;;5128817;27;20808;-34
2023/09/21 07:02:44;;;;;;;1.60;1.50;;;19.60;99.90;;;;;;5062645;27;20052;-33
2023/09/21 07:05:12;;;;;;;2.20;1.48;;;19.50;99.90;;;;;;5127976;27;20019;-35
2023/09/21 07:07:41;;;;;;;2.30;1.58;;;19.50;99.90;;;;;;5159088;27;20026;-38
2023/09/21 07:10:11;;;;;;;1.95;1.55;;;19.40;99.90;;;;;;5107952;27;20080;-35
2023/09/21 07:12:38;;;;;;;1.42;1.33;;;19.40;99.90;;;;;;5164285;27;20055;-35
2023/09/21 07:15:04;;;;;;;1.98;1.58;;;19.40;99.90;;;;;;5118254;27;20020;-34
2023/09/21 07:17:29;;;;;;;2.05;1.83;;;19.30;99.90;;;;;;5150563;27;20049;-34
2023/09/21 07:19:55;;;;;;;2.75;1.40;;;19.30;99.90;;;;;;5131986;27;20442;-34
2023/09/21 07:22:20;;;;;;;1.95;1.38;;;19.30;99.90;;;;;;5136499;27;20030;-34
2023/09/21 07:24:47;;;;;;;2.00;1.60;;;19.30;99.90;;;;;;5145417;27;20022;-34
2023/09/21 07:27:16;;;;;;;1.92;1.67;;;19.20;99.90;;;;;;5123412;27;20027;-34
2023/09/21 07:29:42;;;;;;;3.22;1.88;;;19.20;99.90;;;;;;5156579;27;20030;-34
2023/09/21 07:32:11;;;;;;;3.85;1.70;;;19.20;99.90;;;;;;5110630;27;20050;-35
2023/09/21 07:34:37;;;;;;;2.75;1.67;;;19.20;99.90;;;;;;5160000;27;20028;-35
2023/09/21 07:37:03;;;;;;;1.83;1.63;;;19.10;99.90;;;;;;5107315;27;20860;-34
2023/09/21 07:39:29;;;;;;;2.35;1.58;;;19.10;99.90;;;;;;5160765;27;20045;-35
2023/09/21 07:41:54;;;;;;;2.90;1.70;;;19.10;99.90;;;;;;5107567;27;20026;-34
2023/09/21 07:44:22;;;;;;;4.38;2.08;;;19.10;99.90;;;;;;5166966;27;20155;-35
2023/09/21 07:46:50;;;;;;;1.90;1.63;;;19.10;99.90;;;;;;5100292;27;20025;-34
2023/09/21 07:49:17;;;;;;;2.20;1.83;;;19.10;99.90;;;;;;5167091;27;20311;-34
2023/09/21 07:51:43;;;;;;;2.10;1.90;;;19.00;99.90;;;;;;5100348;27;20025;-35
2023/09/21 07:54:08;;;;;;;4.00;2.15;;;19.00;99.90;;;;;;5166683;27;20026;-33
2023/09/21 07:56:36;;;;;;;3.70;2.00;;;19.00;99.90;;;;;;5112504;27;20047;-35
2023/09/21 07:59:02;;;;;;;3.78;2.00;;;19.00;99.90;;;;;;5156875;27;20034;-34
2023/09/21 08:01:30;;;;;;;2.83;1.90;;;19.00;99.90;;;;;;5124084;27;20020;-33
2023/09/21 08:03:56;;;;;;;2.15;1.67;;;19.00;99.90;;;;;;5145560;27;20057;-34
2023/09/21 08:06:22;;;;;;;3.33;2.03;;;19.00;99.90;;;;;;5120279;27;20507;-35
2023/09/21 08:08:52;;;;;;;2.42;2.22;;;18.90;99.90;;;;;;5147381;27;20033;-35
2023/09/21 08:11:17;;;;;;;2.22;1.85;;;18.90;99.90;;;;;;5146365;27;20022;-34
2023/09/21 08:13:43;;;;;;;1.73;1.55;;;19.00;99.90;;;;;;5121024;27;20063;-34
2023/09/21 08:16:08;;;;;;;1.88;1.67;;;19.00;99.90;;;;;;5158961;27;20037;-35
2023/09/21 08:18:41;;;;;;;2.88;1.58;;;19.00;99.90;;;;;;5062357;27;20028;-35
2023/09/21 08:21:09;;;;;;;2.38;1.63;;;19.00;99.90;;;;;;5067426;27;20014;-35
2023/09/21 08:23:40;;;;;;;1.85;1.75;;;19.00;99.90;;;;;;5120758;27;20387;-34
2023/09/21 08:26:06;;;;;;;1.60;1.50;;;19.00;99.90;;;;;;5067724;27;20059;-35
2023/09/21 08:28:31;;;;;;;1.90;1.70;;;19.00;99.90;;;;;;5120039;27;20077;-34
2023/09/21 08:30:57;;;;;;;1.85;1.75;;;19.00;99.90;;;;;;5060836;28;20045;-36
2023/09/21 08:33:23;;;;;;;2.03;1.75;;;19.00;99.90;;;;;;5127325;27;20744;-35
2023/09/21 08:35:49;;;;;;;2.35;2.03;;;19.00;99.90;;;;;;5060797;28;20028;-35
2023/09/21 08:38:17;;;;;;;2.35;2.15;;;19.00;99.90;;;;;;5126917;27;20472;-36
2023/09/21 08:40:44;;;;;;;2.13;1.88;;;19.10;99.90;;;;;;5059711;28;20032;-35
2023/09/21 08:43:16;;;;;;;2.42;2.13;;;19.10;99.90;;;;;;5120288;27;20477;-34
2023/09/21 08:45:45;;;;;;;2.45;1.58;;;19.00;99.90;;;;;;5069298;27;20028;-36
2023/09/21 08:48:15;;;;;;;2.67;1.63;;;19.10;99.90;;;;;;5113784;27;20022;-37
2023/09/21 08:50:41;;;;;;;2.88;1.52;;;19.10;99.90;;;;;;5076764;27;20412;-35
2023/09/21 08:53:11;;;;;;;2.20;1.48;;;19.10;99.90;;;;;;5103267;27;20574;-35
2023/09/21 08:55:38;;;;;;;2.22;1.70;;;19.10;99.90;;;;;;5087486;27;20029;-35
2023/09/21 08:58:05;;;;;;;2.25;1.83;;;19.10;99.90;;;;;;5093775;27;20033;-35
2023/09/21 09:00:33;;;;;;;1.98;1.60;;;19.10;99.90;;;;;;5099382;27;20391;-34
2023/09/21 09:02:59;;;;;;;1.80;1.70;;;19.10;99.90;;;;;;5081769;27;20558;-34
2023/09/21 09:05:26;;;;;;;2.10;1.50;;;19.00;99.90;;;;;;5111151;27;20507;-37
2023/09/21 09:07:51;;;;;;;1.70;1.60;;;19.10;99.90;;;;;;5156543;27;20521;-34
2023/09/21 09:10:18;;;;;;;2.42;1.98;;;19.00;99.90;;;;;;5109859;27;20065;-35
2023/09/21 09:12:43;;;;;;;2.10;1.80;;;19.00;99.90;;;;;;5162904;27;20029;-35
2023/09/21 09:15:14;;;;;;;1.90;1.65;;;19.00;99.90;;;;;;5109834;27;20038;-36
2023/09/21 09:17:40;;;;;;;2.30;2.10;;;19.00;99.90;;;;;;5167365;27;20034;-34
2023/09/21 09:20:06;;;;;;;2.65;2.10;;;19.00;99.90;;;;;;5105186;27;20014;-35
2023/09/21 09:22:34;;;;;;;2.03;1.80;;;18.90;99.90;;;;;;5170147;27;20026;-36
2023/09/21 09:25:07;;;;;;;1.63;1.52;;;18.90;99.90;;;;;;5101249;27;20151;-35
2023/09/21 09:27:34;;;;;;;1.92;1.70;;;18.90;99.90;;;;;;5169990;27;20019;-35
2023/09/21 09:30:00;;;;;;;1.63;1.50;;;18.90;99.90;;;;;;5102800;27;20025;-35
2023/09/21 09:32:35;;;;;;;1.60;1.50;;;18.80;99.90;;;;;;5168193;27;20102;-35
2023/09/21 09:35:03;;;;;;;1.50;1.40;;;18.80;99.90;;;;;;5106988;27;20063;-35
2023/09/21 09:37:28;;;;;;;2.15;1.80;;;18.80;99.90;;;;;;5167324;27;20149;-35
2023/09/21 09:39:55;;;;;;;2.00;1.80;;;18.70;99.90;;;;;;5119218;27;20060;-34
2023/09/21 09:42:22;;;;;;;2.47;1.95;;;18.60;99.90;;;;;;5153511;27;20469;-36
2023/09/21 09:44:50;;;;;;;1.70;1.45;;;18.50;99.90;;;;;;5130394;27;20027;-35
2023/09/21 09:47:16;;;;;;;1.90;1.40;;;18.50;99.90;;;;;;5142044;27;20122;-34
2023/09/21 09:49:51;;;;;;;1.73;1.38;;;18.40;99.90;;;;;;5143221;27;20033;-34
2023/09/21 09:52:19;;;;;;;1.27;1.17;;;18.30;99.90;;;;;;5134857;27;20026;-34
2023/09/21 09:54:51;;;;;;;1.10;1.00;;;18.30;99.90;;;;;;5149092;27;20022;-35
2023/09/21 09:57:18;;;;;;;1.20;1.10;;;18.30;99.90;;;;;;5128920;27;20022;-35
2023/09/21 09:59:46;;;;;;;1.20;1.05;;;18.30;99.90;;;;;;5156578;27;20030;-35
2023/09/21 10:02:18;;;;;;;1.10;0.93;;;18.30;99.90;;;;;;5116302;27;20504;-33
2023/09/21 10:04:46;;;;;;;;;;;18.30;99.90;;;;;;5162478;27;20018;-35
2023/09/21 10:07:15;;;;;;;1.48;0.93;;;18.20;99.90;;;;;;5129605;27;19911;-35
2023/09/21 10:09:41;;;;;;;1.02;0.80;;;18.20;99.90;;;;;;5162483;27;20014;-35
2023/09/21 10:12:08;;;;;;;0.85;0.77;;;18.20;99.90;;;;;;5122683;27;20071;-35
2023/09/21 10:14:41;;;;;;;1.27;0.80;;;18.20;99.90;;;;;;5064164;27;20021;-35
2023/09/21 10:17:10;;;;;;;0.77;0.73;;;18.20;99.90;;;;;;5118464;27;20032;-34
2023/09/21 10:19:38;;;;;;;0.65;0.60;;;18.20;99.90;;;;;;5063418;27;20506;-35
2023/09/21 10:22:25;;;;;;;1.20;0.88;;;18.20;99.90;;;;;;5128269;27;20067;-35
2023/09/21 10:24:54;;;;;;;1.10;0.75;;;18.20;99.90;;;;;;5063988;27;20035;-34
2023/09/21 10:27:24;;;;;;;0.82;0.70;;;18.10;99.90;;;;;;5102241;27;20389;-35
2023/09/21 10:30:02;;;;;;;0.77;0.63;;;18.10;99.90;;;;;;5169016;27;20050;-33
2023/09/21 10:32:44;;;;;;;0.80;0.70;;;18.00;99.90;;;;;;5103259;27;20034;-35
2023/09/21 10:35:18;;;;;;;0.63;0.63;;;18.00;99.90;;;;;;5167899;27;20765;-42
2023/09/21 10:37:43;;;;;;;0.82;0.65;;;18.00;99.90;;;;;;5106753;27;20013;-34
2023/09/21 10:40:20;;;;;;;0.90;0.57;;;18.00;99.90;;;;;;5168368;27;20385;-34
2023/09/21 10:42:45;;;;;;;0.73;0.68;;;17.90;99.90;;;;;;5101381;27;20034;-35
2023/09/21 10:45:23;;;;;;;0.85;0.70;;;18.00;99.90;;;;;;5168267;27;20132;-34
2023/09/21 10:47:50;;;;;;;1.27;0.60;;;18.10;99.90;;;;;;5101978;27;20017;-35
2023/09/21 10:50:19;;;;;;;0.98;0.60;;;18.10;99.90;;;;;;5167561;27;20040;-34
2023/09/21 10:52:47;;;;;;;1.10;0.80;;;18.20;99.90;;;;;;5101769;27;20025;-34
2023/09/21 10:55:14;;;;;;;0.50;0.50;;;18.20;99.90;;;;;;5165298;27;20022;-36
2023/09/21 10:57:41;;;;;;;0.90;0.68;;;18.40;99.90;;;;;;5102265;27;20025;-35
2023/09/21 11:00:20;;;;;;;1.02;0.77;;;18.50;99.90;;;;;;5159727;27;20022;-35
2023/09/21 11:02:46;;;;;;;0.65;0.65;;;18.50;99.90;;;;;;5112732;27;20112;-35
2023/09/21 11:05:16;;;;;;;0.90;0.90;;;18.60;99.90;;;;;;5154885;27;20049;-36
2023/09/21 11:07:43;;;;;;;1.25;0.77;;;18.60;99.90;;;;;;5126235;27;20065;-37
2023/09/21 11:10:11;;;;;;;1.23;1.00;;;18.70;99.90;;;;;;5082112;27;20108;-35
2023/09/21 11:12:39;;;;;;;0.70;0.70;;;18.80;99.90;;;;;;5094779;27;20140;-35
2023/09/21 11:15:06;;;;;;;0.93;0.90;;;18.90;99.90;;;;;;5093767;27;20021;-35
2023/09/21 11:17:32;;;;;;;1.02;0.88;;;18.90;99.90;;;;;;5090828;27;20026;-34
2023/09/21 11:19:58;;;;;;;0.98;0.90;;;19.00;99.90;;;;;;5122132;27;20026;-36
2023/09/21 11:22:24;;;;;;;1.10;0.70;;;19.10;99.90;;;;;;5158279;27;20035;-34
2023/09/21 11:24:50;;;;;;;0.70;0.70;;;19.20;99.90;;;;;;5109952;27;20045;-34
2023/09/21 11:27:16;;;;;;;0.85;0.70;;;19.30;99.90;;;;;;5157598;27;20514;-34
2023/09/21 11:29:46;;;;;;;0.80;0.80;;;19.40;99.90;;;;;;5120596;27;20021;-35
2023/09/21 11:32:17;;;;;;;1.45;1.35;;;19.50;99.90;;;;;;5064287;27;20128;-35
2023/09/21 11:34:47;;;;;;;1.65;1.35;;;19.60;99.90;;;;;;5117558;27;20056;-36
2023/09/21 11:37:13;;;;;;;1.00;1.00;;;19.40;99.90;;;;;;5060621;28;20040;-35
2023/09/21 11:39:41;;;;;;;3.80;2.65;;;19.20;99.90;;;;;;5100419;27;20019;-35
2023/09/21 11:42:10;;;;;;;2.80;2.33;;;18.80;99.90;;;;;;5166530;27;20480;-35
2023/09/21 11:44:37;;;;;;;1.83;1.50;;;18.50;99.90;;;;;;5099558;27;20035;-36
2023/09/21 11:47:07;;;;;;;1.65;1.55;;;18.40;99.90;;;;;;5167302;27;20042;-36
2023/09/21 11:49:37;;;;;;;1.30;1.20;;;18.40;99.90;;;;;;5102553;27;20033;-35
2023/09/21 11:52:03;;;;;;;1.40;1.30;;;18.30;99.90;;;;;;5041167;28;20036;-36
2023/09/21 11:54:30;;;;;;;1.30;1.20;;;18.20;99.90;;;;;;5110486;27;20030;-36
2023/09/21 11:56:56;;;;;;;1.60;1.10;;;18.10;99.90;;;;;;5072739;27;20081;-35
2023/09/21 11:59:26;;;;;;;1.10;1.00;;;17.90;99.90;;;;;;5101706;27;20022;-36
2023/09/21 12:01:55;;;;;;;1.90;1.20;;;17.90;99.90;;;;;;5083816;27;20036;-35
2023/09/21 12:04:22;;;;;;;1.23;1.10;;;17.80;99.90;;;;;;5095628;27;20082;-35
2023/09/21 12:06:52;;;;;;;1.95;1.48;;;17.70;99.90;;;;;;5134696;27;20018;-35
2023/09/21 12:09:18;;;;;;;2.08;1.60;;;17.60;99.90;;;;;;5143314;27;20040;-34
2023/09/21 12:11:45;;;;;;;1.50;1.38;;;17.50;99.90;;;;;;5125407;27;20358;-36
2023/09/21 12:14:12;;;;;;;2.72;1.70;;;17.50;99.90;;;;;;5155678;27;20029;-35
2023/09/21 12:16:38;;;;;;;1.42;1.33;;;17.40;99.90;;;;;;5117150;27;20146;-35
2023/09/21 12:19:08;;;;;;;2.30;1.63;;;17.40;99.90;;;;;;5163480;27;20103;-35
2023/09/21 12:21:34;;;;;;;1.85;1.55;;;17.30;99.90;;;;;;5111508;27;20026;-35
2023/09/21 12:24:02;;;;;;;2.67;1.30;;;17.20;99.90;;;;;;5163700;27;20026;-35
2023/09/21 12:26:28;;;;;;;2.53;1.40;;;17.20;99.90;;;;;;5111784;27;20025;-35
2023/09/21 12:28:54;;;;;;;3.00;1.70;;;17.10;99.90;;;;;;5171314;27;20035;-35
2023/09/21 12:31:22;;;;;;;1.65;1.55;;;16.90;99.90;;;;;;5103414;27;20548;-36
2023/09/21 12:33:50;;;;;;;1.30;1.20;;;16.60;99.90;;;;;;5170291;27;20129;-35
2023/09/21 12:36:16;;;;;;;2.00;1.60;;;16.50;99.90;;;;;;5102840;27;20025;-34
2023/09/21 12:38:42;;;;;;;2.75;1.52;;;16.40;99.90;;;;;;5170772;27;20500;-36
2023/09/21 12:41:09;;;;;;;2.60;1.90;;;16.30;99.90;;;;;;5111427;27;20025;-37
2023/09/21 12:43:38;;;;;;;2.10;1.80;;;16.30;99.90;;;;;;5164247;27;20034;-34
2023/09/21 12:46:09;;;;;;;1.95;1.70;;;16.30;99.90;;;;;;5122539;27;20404;-36
2023/09/21 12:48:36;;;;;;;1.85;1.42;;;16.30;99.90;;;;;;5155741;27;20089;-34
2023/09/21 12:51:03;;;;;;;2.03;1.63;;;16.30;99.90;;;;;;5131102;27;20028;-36
2023/09/21 12:53:29;;;;;;;2.05;1.77;;;16.30;99.90;;;;;;5144664;27;20023;-34
2023/09/21 12:55:55;;;;;;;3.80;1.80;;;16.30;99.90;;;;;;5143243;27;20021;-35